Block Island, RI

12:40 PM EDT on April 29, 2017 (GMT -0400)
Block Island State

Weather History for KBID - January, 2014

Change the Weather History Date:

Thursday, January 23, 2014

  Actual Average Record
Temperature  
Mean Temperature 14 °F -  
Max Temperature 19 °F 40 °F 54 °F (1974)
Min Temperature 8 °F 26 °F 0 °F (1976)
Degree Days  
Heating Degree Days 52    
Moisture  
Dew Point 1 °F    
Average Humidity 54    
Maximum Humidity 67    
Minimum Humidity 42    
Precipitation  
Precipitation 0.00 in - - ()
Sea Level Pressure  
Sea Level Pressure 30.05 in    
Wind  
Wind Speed 12 mph (NW)    
Max Wind Speed 18 mph    
Max Gust Speed 28 mph    
Visibility 10 miles    
Events      
Averages and records for this station are not official NWS values.
T = Trace of Precipitation, MM = Missing Value Source: NWS Daily Summary

Daily Weather History Graph

Daily Weather History Graph

Search for Another Location

Airport or City:

Trip Planner

Search our weather history database for the weather conditions in past years. The results will help you decide how hot, cold, wet, or windy it might be!

Date:

Astronomy

Jan. 23, 2014 Rise Set
Actual Time 7:04 AM EST 4:51 PM EST
Civil Twilight 6:35 AM EST 5:21 PM EST
Nautical Twilight 6:01 AM EST 5:55 PM EST
Astronomical Twilight 5:28 AM EST 6:27 PM EST
Moon No Moon Rise 10:33 AM EST (1/23)
Length of Visible Light 10h 46m
Length of Day
9h 46m
Waning Gibbous, 55% of the Moon is Illuminated
Jan 23
Waning Gibbous
Jan 24
Last Quarter
Jan 30
New
Feb 6
First Quarter
Feb 14
Full

Hourly Weather History & Observations

Time (EST) Temp. Windchill Dew Point Humidity Pressure Visibility Wind Dir Wind Speed Gust Speed Precip Events Conditions
12:15 AM 10.4 °F -2.4 °F -4.0 °F 52% 29.88 in 10.0 mi NNW 9.2 mph - N/A   Clear
12:35 AM 10.4 °F -5.4 °F -2.2 °F 57% 29.89 in 10.0 mi NNW 13.8 mph 19.6 mph N/A   Clear
12:55 AM 10.4 °F -4.1 °F -2.2 °F 57% 29.89 in 10.0 mi NNW 11.5 mph 17.3 mph N/A   Clear
1:15 AM 10.4 °F -5.4 °F -2.2 °F 57% 29.90 in 10.0 mi NNW 13.8 mph 18.4 mph N/A   Clear
1:35 AM 10.4 °F -4.8 °F -2.2 °F 57% 29.92 in 10.0 mi NNW 12.7 mph 18.4 mph N/A   Clear
1:55 AM 10.4 °F -3.3 °F -2.2 °F 57% 29.93 in 10.0 mi NNW 10.4 mph 18.4 mph N/A   Clear
2:15 AM 10.4 °F -4.1 °F -2.2 °F 57% 29.94 in 10.0 mi NNW 11.5 mph 16.1 mph N/A   Clear
2:35 AM 10.4 °F -3.3 °F -2.2 °F 57% 29.95 in 10.0 mi NNW 10.4 mph 19.6 mph N/A   Clear
2:55 AM 10.4 °F -2.4 °F -2.2 °F 57% 29.95 in 10.0 mi NNW 9.2 mph 16.1 mph N/A   Clear
3:15 AM 10.4 °F -3.3 °F -2.2 °F 57% 29.95 in 10.0 mi NNW 10.4 mph - N/A   Clear
3:35 AM 10.4 °F -2.4 °F -2.2 °F 57% 29.95 in 10.0 mi NNW 9.2 mph - N/A   Clear
3:55 AM 10.4 °F -0.4 °F -2.2 °F 57% 29.96 in 10.0 mi NNW 6.9 mph - N/A   Clear
4:15 AM 10.4 °F -1.5 °F -2.2 °F 57% 29.97 in 10.0 mi NNW 8.1 mph - N/A   Clear
4:35 AM 10.4 °F -2.4 °F -2.2 °F 57% 29.97 in 10.0 mi NNW 9.2 mph 16.1 mph N/A   Clear
4:55 AM 8.6 °F -5.5 °F -2.2 °F 62% 29.97 in 10.0 mi NNW 10.4 mph - N/A   Clear
5:15 AM 8.6 °F -3.7 °F -2.2 °F 62% 29.98 in 10.0 mi NW 8.1 mph - N/A   Clear
5:35 AM 10.4 °F -3.3 °F -2.2 °F 57% 30.00 in 10.0 mi NW 10.4 mph 16.1 mph N/A   Clear
5:55 AM 10.4 °F -3.3 °F -2.2 °F 57% 30.00 in 10.0 mi NW 10.4 mph - N/A   Clear
6:15 AM 10.4 °F -3.3 °F -2.2 °F 57% 30.01 in 10.0 mi NW 10.4 mph 19.6 mph N/A   Clear
6:35 AM 10.4 °F -3.3 °F -2.2 °F 57% 30.01 in 10.0 mi NW 10.4 mph - N/A   Clear
6:55 AM 10.4 °F -2.4 °F -0.4 °F 62% 30.02 in 10.0 mi NW 9.2 mph - N/A   Clear
7:15 AM 10.4 °F -2.4 °F -0.4 °F 62% 30.03 in 10.0 mi NW 9.2 mph - N/A   Clear
7:35 AM 10.4 °F -3.3 °F 1.4 °F 67% 30.03 in 10.0 mi WNW 10.4 mph - N/A   Clear
7:55 AM 12.2 °F 0.7 °F 1.4 °F 62% 30.03 in 10.0 mi NW 8.1 mph - N/A   Clear
8:15 AM 12.2 °F -0.2 °F 1.4 °F 62% 30.03 in 10.0 mi NW 9.2 mph - N/A   Clear
8:35 AM 12.2 °F -0.2 °F 3.2 °F 67% 30.04 in 10.0 mi NW 9.2 mph 16.1 mph N/A   Clear
8:55 AM 12.2 °F -1.8 °F 3.2 °F 67% 30.04 in 10.0 mi NW 11.5 mph 17.3 mph N/A   Clear
9:15 AM 12.2 °F -1.8 °F 1.4 °F 62% 30.06 in 10.0 mi WNW 11.5 mph 17.3 mph N/A   Clear
9:35 AM 15.8 °F 1.4 °F 3.2 °F 58% 30.06 in 10.0 mi WNW 13.8 mph 17.3 mph N/A   Scattered Clouds
9:55 AM 15.8 °F 3.4 °F 3.2 °F 58% 30.06 in 10.0 mi NW 10.4 mph 16.1 mph N/A   Partly Cloudy
10:15 AM 15.8 °F 4.2 °F 5.0 °F 62% 30.06 in 10.0 mi WNW 9.2 mph - N/A   Clear
10:35 AM 15.8 °F 2.7 °F 5.0 °F 62% 30.05 in 10.0 mi West 11.5 mph - N/A   Clear
10:55 AM 17.6 °F 7.3 °F 6.8 °F 63% 30.05 in 10.0 mi West 8.1 mph 16.1 mph N/A   Clear
11:15 AM 17.6 °F 5.0 °F 5.0 °F 58% 30.04 in 10.0 mi West 11.5 mph - N/A   Clear
11:35 AM 17.6 °F 5.7 °F 6.8 °F 63% 30.04 in 10.0 mi West 10.4 mph 17.3 mph N/A   Clear
11:55 AM 19.4 °F 7.2 °F 6.8 °F 58% 30.04 in 10.0 mi West 11.5 mph 17.3 mph N/A   Clear
12:15 PM 19.4 °F 5.5 °F 6.8 °F 58% 30.03 in 10.0 mi West 15.0 mph 20.7 mph N/A   Clear
12:35 PM 19.4 °F 5.0 °F 6.8 °F 58% 30.03 in 10.0 mi West 16.1 mph 21.9 mph N/A   Clear
12:55 PM 19.4 °F 4.1 °F 5.0 °F 54% 30.03 in 10.0 mi West 18.4 mph 23.0 mph N/A   Clear
1:15 PM 19.4 °F 5.0 °F 3.2 °F 49% 30.03 in 10.0 mi West 16.1 mph 23.0 mph N/A   Partly Cloudy
1:35 PM 19.4 °F 5.0 °F 5.0 °F 54% 30.03 in 10.0 mi West 16.1 mph 23.0 mph N/A   Clear
1:55 PM 19.4 °F 4.5 °F 6.8 °F 58% 30.03 in 10.0 mi West 17.3 mph 25.3 mph N/A   Mostly Cloudy
2:15 PM 19.4 °F 4.1 °F 6.8 °F 58% 30.03 in 10.0 mi West 18.4 mph 26.5 mph N/A   Mostly Cloudy
2:35 PM 19.4 °F 5.0 °F 6.8 °F 58% 30.03 in 10.0 mi West 16.1 mph 27.6 mph N/A   Mostly Cloudy
2:55 PM 19.4 °F 5.5 °F 3.2 °F 49% 30.04 in 10.0 mi West 15.0 mph 25.3 mph N/A   Mostly Cloudy
3:15 PM 19.4 °F 4.1 °F 3.2 °F 49% 30.04 in 10.0 mi West 18.4 mph 25.3 mph N/A   Mostly Cloudy
3:35 PM 19.4 °F 5.5 °F 3.2 °F 49% 30.05 in 10.0 mi WNW 15.0 mph 23.0 mph N/A   Scattered Clouds
3:55 PM 19.4 °F 6.0 °F 3.2 °F 49% 30.05 in 10.0 mi WNW 13.8 mph 24.2 mph N/A   Scattered Clouds
4:15 PM 19.4 °F 4.5 °F 1.4 °F 46% 30.06 in 10.0 mi West 17.3 mph 23.0 mph N/A   Scattered Clouds
4:35 PM 19.4 °F 4.5 °F 1.4 °F 46% 30.07 in 10.0 mi West 17.3 mph 24.2 mph N/A   Scattered Clouds
4:55 PM 19.4 °F 5.0 °F 1.4 °F 46% 30.08 in 10.0 mi WNW 16.1 mph 25.3 mph N/A   Scattered Clouds
5:15 PM 19.4 °F 6.6 °F -0.4 °F 42% 30.09 in 10.0 mi WNW 12.7 mph 24.2 mph N/A   Partly Cloudy
5:35 PM 19.4 °F 7.2 °F -0.4 °F 42% 30.10 in 10.0 mi WNW 11.5 mph 21.9 mph N/A   Scattered Clouds
5:55 PM 19.4 °F 6.0 °F 1.4 °F 46% 30.11 in 10.0 mi NW 13.8 mph 21.9 mph N/A   Mostly Cloudy
6:15 PM 19.4 °F 6.6 °F 1.4 °F 46% 30.12 in 10.0 mi WNW 12.7 mph 24.2 mph N/A   Overcast
6:35 PM 17.6 °F 3.2 °F -0.4 °F 45% 30.12 in 10.0 mi WNW 15.0 mph 23.0 mph N/A   Mostly Cloudy
6:55 PM 17.6 °F 3.2 °F -0.4 °F 45% 30.13 in 10.0 mi NW 15.0 mph 23.0 mph N/A   Scattered Clouds
7:15 PM 17.6 °F 3.2 °F 1.4 °F 49% 30.14 in 10.0 mi WNW 15.0 mph 21.9 mph N/A   Mostly Cloudy
7:35 PM 17.6 °F 2.7 °F 1.4 °F 49% 30.15 in 10.0 mi WNW 16.1 mph 23.0 mph N/A   Mostly Cloudy
7:55 PM 17.6 °F 2.7 °F 1.4 °F 49% 30.16 in 10.0 mi NW 16.1 mph 21.9 mph N/A   Mostly Cloudy
8:15 PM 17.6 °F 5.7 °F 1.4 °F 49% 30.16 in 10.0 mi NW 10.4 mph 23.0 mph N/A   Overcast
8:35 PM 17.6 °F 5.7 °F -0.4 °F 45% 30.17 in 10.0 mi NW 10.4 mph 20.7 mph N/A   Overcast
8:55 PM 17.6 °F 3.2 °F 1.4 °F 49% 30.18 in 10.0 mi NW 15.0 mph 24.2 mph N/A   Mostly Cloudy
9:15 PM 17.6 °F 4.3 °F 1.4 °F 49% 30.18 in 10.0 mi WNW 12.7 mph 24.2 mph N/A   Mostly Cloudy
9:35 PM 17.6 °F 4.3 °F -0.4 °F 45% 30.19 in 10.0 mi NW 12.7 mph 24.2 mph N/A   Mostly Cloudy
9:55 PM 15.8 °F 1.4 °F -0.4 °F 49% 30.19 in 10.0 mi NW 13.8 mph 20.7 mph N/A   Scattered Clouds
10:15 PM 15.8 °F 2.1 °F -0.4 °F 49% 30.19 in 10.0 mi NW 12.7 mph 24.2 mph N/A   Scattered Clouds
10:35 PM 15.8 °F 2.7 °F -0.4 °F 49% 30.19 in 10.0 mi NW 11.5 mph 20.7 mph N/A   Scattered Clouds
10:55 PM 15.8 °F 3.4 °F -0.4 °F 49% 30.19 in 10.0 mi NW 10.4 mph 17.3 mph N/A   Mostly Cloudy
11:15 PM 15.8 °F 2.1 °F -0.4 °F 49% 30.19 in 10.0 mi WNW 12.7 mph 19.6 mph N/A   Scattered Clouds
11:35 PM 15.8 °F 2.7 °F -0.4 °F 49% 30.19 in 10.0 mi WNW 11.5 mph 21.9 mph N/A   Scattered Clouds
11:55 PM 17.6 °F 3.7 °F -0.4 °F 45% 30.19 in 10.0 mi WNW 13.8 mph 23.0 mph N/A   Scattered Clouds